Terminal Aerodrome Forecast
Issued by NWS Sioux Falls, SD

Home | Current Version | Previous Version | Graphics & Text | Print | Product List | Glossary On
Versions: 1 2 3 4 5 6 7 8 9 10 11 12 13 14 15 16 17 18 19
946
FTUS43 KFSD 230153 AAA
TAFHON
TAF AMD
KHON 230153Z 2302/2324 VRB03KT 5SM -SN BKN035
     FM230500 00000KT P6SM OVC035
     FM231500 31007KT P6SM BKN015
     FM231900 31006KT P6SM BKN015=

USA.gov is the U.S. government's official web portal to all federal, state and local government web resources and services.